Time;durP1;ratioP1;P1;durP2;ratioP2;P2;SDS_P1;SDS_P2;PMS_P1;PMS_P2;Temp;Humidity;BMP_temperature;BMP_pressure;BME280_temperature;BME280_humidity;BME280_pressure;Samples;Min_cycle;Max_cycle;Signal;HPM_P1;HPM_P2
2022/08/31 00:06:03;;;;;;;1.77;0.73;;;17.30;99.90;;;;;;5010545;28;20142;-79
2022/08/31 00:08:29;;;;;;;3.05;0.70;;;17.30;99.90;;;;;;5014457;28;20049;-78
2022/08/31 00:10:55;;;;;;;2.20;0.88;;;17.30;99.90;;;;;;5028063;28;20076;-77
2022/08/31 00:13:22;;;;;;;2.97;0.80;;;17.30;99.90;;;;;;5017577;28;20049;-79
2022/08/31 00:15:48;;;;;;;2.17;0.57;;;17.30;99.90;;;;;;5032579;28;20080;-80
2022/08/31 00:18:16;;;;;;;1.20;0.60;;;17.10;99.90;;;;;;5025320;28;20477;-78
2022/08/31 00:20:43;;;;;;;2.72;0.70;;;17.20;99.90;;;;;;5014971;28;20092;-78
2022/08/31 00:23:11;;;;;;;2.03;0.70;;;17.20;99.90;;;;;;5047413;28;20411;-77
2022/08/31 00:25:39;;;;;;;1.50;0.80;;;17.20;99.90;;;;;;5028488;28;20103;-79
2022/08/31 00:28:06;;;;;;;1.27;0.70;;;17.10;99.90;;;;;;5017666;28;20375;-75
2022/08/31 00:30:32;;;;;;;2.10;0.80;;;17.10;99.90;;;;;;5044710;28;20049;-77
2022/08/31 00:32:58;;;;;;;1.48;0.73;;;17.00;99.90;;;;;;5005748;28;20048;-78
2022/08/31 00:35:26;;;;;;;1.85;0.70;;;17.00;99.90;;;;;;5005809;28;20056;-77
2022/08/31 00:37:52;;;;;;;1.17;0.70;;;17.00;99.90;;;;;;5006184;28;20053;-78
2022/08/31 00:40:18;;;;;;;2.17;0.80;;;16.90;99.90;;;;;;5028225;28;20061;-76
2022/08/31 00:42:43;;;;;;;2.63;0.80;;;16.60;99.90;;;;;;5028375;28;20059;-78
2022/08/31 00:45:09;;;;;;;1.10;0.60;;;16.80;99.90;;;;;;4996898;28;20084;-77
2022/08/31 00:47:35;;;;;;;1.85;0.80;;;16.80;99.90;;;;;;5027463;28;20529;-75
2022/08/31 00:50:05;;;;;;;2.67;0.80;;;16.70;99.90;;;;;;5027612;28;20054;-78
2022/08/31 00:52:36;;;;;;;1.63;0.88;;;16.70;99.90;;;;;;5020791;28;20041;-78
2022/08/31 00:55:12;;;;;;;2.88;0.80;;;16.70;99.90;;;;;;5013368;28;20046;-78
2022/08/31 00:57:42;;;;;;;1.83;0.90;;;16.60;99.90;;;;;;5027753;28;20046;-78
2022/08/31 01:00:12;;;;;;;1.90;0.73;;;16.70;99.90;;;;;;5022013;28;20049;-74
2022/08/31 01:02:38;;;;;;;1.60;0.88;;;16.60;99.90;;;;;;5027948;28;20134;-76
2022/08/31 01:05:05;;;;;;;1.65;0.85;;;16.50;99.90;;;;;;5006329;28;20088;-77
2022/08/31 01:07:30;;;;;;;1.63;0.90;;;16.50;99.90;;;;;;5026271;28;20118;-78
2022/08/31 01:09:57;;;;;;;1.75;0.82;;;16.40;99.90;;;;;;5004554;28;20049;-78
2022/08/31 01:12:25;;;;;;;1.70;0.77;;;16.40;99.90;;;;;;5004477;28;20088;-79
2022/08/31 01:14:51;;;;;;;1.35;0.90;;;16.40;99.90;;;;;;5023327;28;20123;-78
2022/08/31 01:17:18;;;;;;;2.50;0.80;;;16.30;99.90;;;;;;5013243;28;20498;-75
2022/08/31 01:19:55;;;;;;;1.63;0.80;;;16.30;99.90;;;;;;5029076;28;20460;-78
2022/08/31 01:22:36;;;;;;;0.95;0.70;;;16.20;99.90;;;;;;5012836;28;20056;-79
2022/08/31 01:25:03;;;;;;;1.38;1.00;;;16.20;99.90;;;;;;5029456;28;20049;-75
2022/08/31 01:27:33;;;;;;;1.10;0.60;;;16.10;99.90;;;;;;5012429;28;20045;-79
2022/08/31 01:30:06;;;;;;;3.10;0.88;;;16.10;99.90;;;;;;5021716;28;20095;-75
2022/08/31 01:32:31;;;;;;;2.50;0.80;;;16.10;99.90;;;;;;5011725;28;20395;-75
2022/08/31 01:34:57;;;;;;;1.30;0.70;;;16.00;99.90;;;;;;5003108;28;20124;-78
2022/08/31 01:37:23;;;;;;;1.38;0.70;;;16.00;99.90;;;;;;5028771;28;20115;-78
2022/08/31 01:39:50;;;;;;;1.40;0.75;;;16.40;99.90;;;;;;5004925;28;20084;-77
2022/08/31 01:42:17;;;;;;;1.63;0.80;;;16.00;99.90;;;;;;5004762;28;20084;-80
2022/08/31 01:44:42;;;;;;;0.90;0.70;;;16.00;99.90;;;;;;5020854;28;20837;-78
2022/08/31 01:47:08;;;;;;;1.92;0.70;;;15.90;99.90;;;;;;5005103;28;20048;-77
2022/08/31 01:49:34;;;;;;;2.80;0.75;;;15.90;99.90;;;;;;4995291;28;20139;-79
2022/08/31 01:52:00;;;;;;;1.13;0.70;;;15.90;99.90;;;;;;4979797;28;20049;-79
2022/08/31 01:54:26;;;;;;;1.92;0.80;;;15.80;99.90;;;;;;5011980;28;20049;-79
2022/08/31 01:56:53;;;;;;;0.90;0.55;;;15.70;99.90;;;;;;5005500;28;20403;-80
2022/08/31 01:59:21;;;;;;;1.25;0.80;;;15.70;99.90;;;;;;5020477;28;20045;-77
2022/08/31 02:01:50;;;;;;;3.88;0.80;;;15.70;99.90;;;;;;5010773;28;20575;-77
2022/08/31 02:04:19;;;;;;;0.75;0.70;;;15.60;99.90;;;;;;5020396;28;20064;-74
2022/08/31 02:06:48;;;;;;;1.30;0.88;;;15.60;99.90;;;;;;5011334;28;20057;-78
2022/08/31 02:09:15;;;;;;;1.00;0.75;;;15.60;99.90;;;;;;5028954;28;20112;-78
2022/08/31 02:11:41;;;;;;;1.65;0.70;;;15.60;99.90;;;;;;4995731;28;20578;-79
2022/08/31 02:14:08;;;;;;;2.10;0.88;;;15.50;99.90;;;;;;5012631;28;20092;-77
2022/08/31 02:16:35;;;;;;;1.40;0.80;;;15.50;99.90;;;;;;5003619;28;20136;-77
2022/08/31 02:19:01;;;;;;;1.42;0.80;;;15.50;99.90;;;;;;5011128;28;20399;-78
2022/08/31 02:21:27;;;;;;;3.78;0.80;;;15.40;99.90;;;;;;5022216;28;20049;-79
2022/08/31 02:23:53;;;;;;;0.98;0.70;;;15.40;99.90;;;;;;5005078;28;20115;-79
2022/08/31 02:26:19;;;;;;;2.20;0.80;;;15.30;99.90;;;;;;5021030;28;20056;-75
2022/08/31 02:28:45;;;;;;;1.38;0.80;;;15.30;99.90;;;;;;5006129;28;20041;-79
2022/08/31 02:31:11;;;;;;;1.15;0.60;;;15.30;99.90;;;;;;4996567;28;20052;-78
2022/08/31 02:33:37;;;;;;;1.20;0.70;;;15.30;99.90;;;;;;4996114;28;20049;-78
2022/08/31 02:36:03;;;;;;;1.35;0.80;;;15.30;99.90;;;;;;5027851;28;20132;-78
2022/08/31 02:38:31;;;;;;;1.40;0.80;;;15.20;99.90;;;;;;5004475;28;20072;-79
2022/08/31 02:40:57;;;;;;;1.33;0.75;;;15.20;99.90;;;;;;5022265;28;20056;-79
2022/08/31 02:43:23;;;;;;;1.65;0.80;;;15.20;99.90;;;;;;5018915;28;20507;-78
2022/08/31 02:45:49;;;;;;;1.10;0.82;;;15.10;99.90;;;;;;5003796;28;20049;-79
2022/08/31 02:48:14;;;;;;;1.38;0.70;;;15.10;99.90;;;;;;4997189;28;20484;-74
2022/08/31 02:50:42;;;;;;;2.35;0.95;;;15.10;99.90;;;;;;5017969;28;20057;-78
2022/08/31 02:53:09;;;;;;;1.73;0.70;;;15.00;99.90;;;;;;5045472;28;20053;-77
2022/08/31 02:55:35;;;;;;;1.30;0.80;;;15.00;99.90;;;;;;5032563;28;20084;-79
2022/08/31 02:58:02;;;;;;;1.83;0.70;;;15.00;99.90;;;;;;5006211;28;20436;-78
2022/08/31 03:00:28;;;;;;;1.23;0.70;;;15.00;99.90;;;;;;4995777;28;20553;-79
2022/08/31 03:02:54;;;;;;;1.38;0.65;;;14.90;99.90;;;;;;5004688;28;20049;-78
2022/08/31 03:05:20;;;;;;;0.90;0.70;;;14.90;99.90;;;;;;5000882;28;20057;-76
2022/08/31 03:07:48;;;;;;;1.60;0.80;;;14.90;99.90;;;;;;5002378;28;20072;-77
2022/08/31 03:10:15;;;;;;;1.02;0.80;;;14.90;99.90;;;;;;5031208;28;20096;-75
2022/08/31 03:12:41;;;;;;;0.95;0.60;;;14.90;99.90;;;;;;5021218;28;20045;-78
2022/08/31 03:15:09;;;;;;;1.10;0.70;;;14.90;99.90;;;;;;4994489;28;20525;-74
2022/08/31 03:17:35;;;;;;;2.83;0.80;;;14.90;99.90;;;;;;5020371;28;20069;-78
2022/08/31 03:20:04;;;;;;;1.33;0.80;;;14.90;99.90;;;;;;5042702;28;20080;-79
2022/08/31 03:22:32;;;;;;;1.83;0.85;;;14.80;99.90;;;;;;5027846;28;20053;-78
2022/08/31 03:24:57;;;;;;;1.00;0.63;;;14.80;99.90;;;;;;4994344;28;20057;-78
2022/08/31 03:27:24;;;;;;;1.48;0.70;;;14.80;99.90;;;;;;5005498;28;20083;-75
2022/08/31 03:29:51;;;;;;;1.20;0.90;;;14.70;99.90;;;;;;5027670;28;20122;-78
2022/08/31 03:32:17;;;;;;;1.88;0.70;;;14.70;99.90;;;;;;5024683;28;20052;-78
2022/08/31 03:34:43;;;;;;;2.67;1.00;;;14.70;99.90;;;;;;5009028;28;20064;-78
2022/08/31 03:37:09;;;;;;;1.52;0.90;;;14.70;99.90;;;;;;5031618;28;20407;-77
2022/08/31 03:39:35;;;;;;;1.48;0.70;;;14.60;99.90;;;;;;5006879;28;20057;-78
2022/08/31 03:42:01;;;;;;;1.00;0.70;;;14.60;99.90;;;;;;4999006;28;20045;-74
2022/08/31 03:44:27;;;;;;;2.40;0.80;;;14.70;99.90;;;;;;5030814;28;20069;-78
2022/08/31 03:46:54;;;;;;;2.25;0.77;;;14.60;99.90;;;;;;4998353;28;20053;-77
2022/08/31 03:49:22;;;;;;;1.35;0.80;;;14.50;99.90;;;;;;5008468;28;20528;-77
2022/08/31 03:51:48;;;;;;;1.77;0.90;;;14.50;99.90;;;;;;5030496;28;20049;-77
2022/08/31 03:54:14;;;;;;;1.55;0.82;;;14.50;99.90;;;;;;5031266;28;20053;-79
2022/08/31 03:56:40;;;;;;;1.95;0.77;;;14.50;99.90;;;;;;5012828;28;20136;-80
2022/08/31 03:59:06;;;;;;;1.45;0.70;;;14.50;99.90;;;;;;5012881;28;21555;-80
2022/08/31 04:01:35;;;;;;;2.28;1.00;;;14.50;99.90;;;;;;5013818;28;20077;-80
2022/08/31 04:04:01;;;;;;;1.60;0.80;;;14.50;99.90;;;;;;5029722;28;20046;-79
2022/08/31 04:06:27;;;;;;;0.95;0.70;;;14.40;99.90;;;;;;4991754;28;20084;-79
2022/08/31 04:08:52;;;;;;;1.20;0.90;;;14.40;99.90;;;;;;5029007;28;20088;-79
2022/08/31 04:11:18;;;;;;;1.23;0.80;;;14.40;99.90;;;;;;5023067;28;20045;-79
2022/08/31 04:13:45;;;;;;;1.25;0.70;;;14.40;99.90;;;;;;5005740;28;20121;-78
2022/08/31 04:16:13;;;;;;;1.42;0.93;;;14.40;99.90;;;;;;5014389;28;20053;-78
2022/08/31 04:18:41;;;;;;;1.10;0.80;;;14.40;99.90;;;;;;5014172;28;20119;-79
2022/08/31 04:21:29;;;;;;;3.33;1.00;;;14.40;99.90;;;;;;4997468;28;20505;-79
2022/08/31 04:23:56;;;;;;;0.73;0.63;;;14.30;99.90;;;;;;4997308;28;20592;-79
2022/08/31 04:26:34;;;;;;;1.50;1.00;;;14.30;99.90;;;;;;4997895;28;20091;-80
2022/08/31 04:29:00;;;;;;;1.00;0.88;;;14.00;99.90;;;;;;5014125;28;20107;-80
2022/08/31 04:31:26;;;;;;;0.90;0.77;;;14.30;99.90;;;;;;5030844;28;20045;-80
2022/08/31 04:33:55;;;;;;;1.15;0.73;;;14.30;99.90;;;;;;4990464;28;20049;-79
2022/08/31 04:36:23;;;;;;;3.17;0.88;;;14.30;99.90;;;;;;4998246;28;20088;-79
2022/08/31 04:38:51;;;;;;;1.48;0.82;;;14.30;99.90;;;;;;5029324;28;20132;-80
2022/08/31 04:41:19;;;;;;;1.15;0.75;;;14.30;99.90;;;;;;5029673;28;20497;-80
2022/08/31 04:43:49;;;;;;;1.98;0.98;;;14.30;99.90;;;;;;5005400;28;20491;-79
2022/08/31 04:46:15;;;;;;;1.70;0.85;;;14.30;99.90;;;;;;5014190;28;20472;-78
2022/08/31 04:48:41;;;;;;;2.00;0.90;;;14.30;99.90;;;;;;5013467;28;20076;-80
2022/08/31 04:51:11;;;;;;;1.20;0.85;;;14.30;99.90;;;;;;5013612;28;20096;-81
2022/08/31 04:53:37;;;;;;;2.10;0.88;;;14.20;99.90;;;;;;5029120;28;20132;-79
2022/08/31 04:56:13;;;;;;;1.48;1.05;;;14.30;99.90;;;;;;4997276;28;20554;-79
2022/08/31 04:59:10;;;;;;;1.80;0.90;;;14.30;99.90;;;;;;5022651;28;20049;-78
2022/08/31 05:01:39;;;;;;;2.25;1.27;;;14.30;99.90;;;;;;5031006;28;20053;-79
2022/08/31 05:04:06;;;;;;;1.75;1.20;;;14.30;99.90;;;;;;5030126;28;20157;-79
2022/08/31 05:06:34;;;;;;;1.95;0.90;;;14.30;99.90;;;;;;5013430;28;20441;-81
2022/08/31 05:09:04;;;;;;;1.48;1.00;;;14.30;99.90;;;;;;5012965;28;20060;-77
2022/08/31 05:11:29;;;;;;;2.65;0.93;;;14.30;99.90;;;;;;5029189;28;20055;-76
2022/08/31 05:13:58;;;;;;;1.23;0.82;;;14.30;99.90;;;;;;5009123;28;20045;-80
2022/08/31 05:16:24;;;;;;;1.92;1.10;;;14.30;99.90;;;;;;5022866;28;20049;-80
2022/08/31 05:18:50;;;;;;;2.22;1.15;;;14.40;99.90;;;;;;5013692;28;20562;-79
2022/08/31 05:21:28;;;;;;;1.73;1.08;;;14.30;99.90;;;;;;5030084;28;20111;-80
2022/08/31 05:23:59;;;;;;;3.72;0.98;;;14.40;99.90;;;;;;5028695;28;20187;-79
2022/08/31 05:26:29;;;;;;;1.60;1.00;;;14.40;99.90;;;;;;5029548;28;20077;-80
2022/08/31 05:28:56;;;;;;;1.88;1.00;;;14.40;99.90;;;;;;5013668;28;20100;-79
2022/08/31 05:31:22;;;;;;;1.55;1.00;;;14.40;99.90;;;;;;4997015;28;20057;-79
2022/08/31 05:33:48;;;;;;;2.20;1.05;;;14.50;99.90;;;;;;5007030;28;20059;-80
2022/08/31 05:36:17;;;;;;;3.28;1.00;;;14.40;99.90;;;;;;5066911;28;20037;-76
2022/08/31 05:38:43;;;;;;;2.53;1.05;;;14.40;99.90;;;;;;5009295;28;20460;-80
2022/08/31 05:41:09;;;;;;;1.08;0.80;;;14.50;99.90;;;;;;5010344;28;20458;-78
2022/08/31 05:43:36;;;;;;;1.85;0.95;;;14.50;99.90;;;;;;5028678;28;20132;-79
2022/08/31 05:46:11;;;;;;;0.93;0.60;;;14.50;99.90;;;;;;5028705;28;20080;-78
2022/08/31 05:48:37;;;;;;;1.85;0.90;;;14.50;99.90;;;;;;5033680;28;20097;-79
2022/08/31 05:51:04;;;;;;;2.80;0.90;;;14.60;99.90;;;;;;5038116;28;20578;-80
2022/08/31 05:53:30;;;;;;;2.92;0.93;;;14.60;99.90;;;;;;4995839;28;20053;-77
2022/08/31 05:56:02;;;;;;;1.52;1.00;;;14.60;99.90;;;;;;4979682;28;20051;-77
2022/08/31 05:58:29;;;;;;;1.40;0.80;;;14.70;99.90;;;;;;5011435;28;20049;-78
2022/08/31 06:00:55;;;;;;;2.63;0.80;;;14.70;99.90;;;;;;4997447;28;20041;-76
2022/08/31 06:03:20;;;;;;;3.50;1.10;;;14.70;99.90;;;;;;5012340;28;20099;-80
2022/08/31 06:05:49;;;;;;;3.45;1.10;;;14.70;99.90;;;;;;5012682;28;20049;-78
2022/08/31 06:08:16;;;;;;;3.08;1.08;;;14.80;99.90;;;;;;5020321;28;20045;-79
2022/08/31 06:10:42;;;;;;;1.48;1.00;;;14.80;99.90;;;;;;5028524;28;20049;-79
2022/08/31 06:13:09;;;;;;;1.77;1.00;;;14.80;99.90;;;;;;5020822;28;20053;-77
2022/08/31 06:15:35;;;;;;;1.10;0.85;;;14.90;99.90;;;;;;5005675;28;20560;-75
2022/08/31 06:18:01;;;;;;;3.80;1.17;;;15.00;99.90;;;;;;5026584;28;20073;-81
2022/08/31 06:20:28;;;;;;;1.70;1.00;;;15.00;99.90;;;;;;5020471;28;20090;-79
2022/08/31 06:22:54;;;;;;;1.95;0.85;;;15.10;99.90;;;;;;5025990;28;20063;-80
2022/08/31 06:25:19;;;;;;;3.85;1.10;;;15.10;99.90;;;;;;4995974;28;20049;-80
2022/08/31 06:27:49;;;;;;;2.58;0.90;;;15.20;99.90;;;;;;5026505;28;20053;-78
2022/08/31 06:30:20;;;;;;;2.30;1.33;;;15.20;99.90;;;;;;5044527;28;20041;-79
2022/08/31 06:32:46;;;;;;;3.42;1.08;;;15.30;99.90;;;;;;5027679;28;20053;-78
2022/08/31 06:35:13;;;;;;;1.15;0.90;;;15.40;99.90;;;;;;5011831;28;20052;-80
2022/08/31 06:37:39;;;;;;;2.50;1.10;;;15.50;99.90;;;;;;5011020;28;20147;-80
2022/08/31 06:40:05;;;;;;;2.40;1.00;;;15.50;99.90;;;;;;4995010;28;20132;-76
2022/08/31 06:42:31;;;;;;;2.88;1.10;;;15.60;99.90;;;;;;5020822;28;20472;-79
2022/08/31 06:44:58;;;;;;;2.03;1.00;;;15.70;99.90;;;;;;4994071;28;20045;-79
2022/08/31 06:47:24;;;;;;;1.95;1.00;;;15.90;99.90;;;;;;5007237;28;20042;-80
2022/08/31 06:49:51;;;;;;;1.60;1.08;;;15.90;99.90;;;;;;5002838;28;20045;-77
2022/08/31 06:52:17;;;;;;;2.92;1.10;;;16.10;99.90;;;;;;5001570;28;20041;-80
2022/08/31 06:54:43;;;;;;;1.95;0.95;;;16.20;99.90;;;;;;5018747;28;20052;-78
2022/08/31 06:57:09;;;;;;;3.08;1.17;;;16.30;99.90;;;;;;4987965;28;20056;-80
2022/08/31 06:59:34;;;;;;;2.15;0.93;;;16.40;99.90;;;;;;5022155;28;20046;-81
2022/08/31 07:02:01;;;;;;;1.88;0.88;;;16.60;99.90;;;;;;5020381;28;20491;-79
2022/08/31 07:04:31;;;;;;;2.08;0.90;;;16.80;99.90;;;;;;5039712;28;20052;-77
2022/08/31 07:06:57;;;;;;;2.38;1.00;;;17.00;99.90;;;;;;5005558;28;20099;-80
2022/08/31 07:09:23;;;;;;;2.72;0.80;;;17.10;99.90;;;;;;5006756;28;20045;-80
2022/08/31 07:11:51;;;;;;;2.70;1.00;;;17.30;99.90;;;;;;5000172;28;20626;-79
2022/08/31 07:14:20;;;;;;;4.57;1.17;;;17.50;99.90;;;;;;5004584;28;20045;-81
2022/08/31 07:16:47;;;;;;;1.35;0.80;;;17.60;99.90;;;;;;5004206;28;20048;-82
2022/08/31 07:19:13;;;;;;;1.88;0.90;;;16.90;99.90;;;;;;5017348;28;20484;-82
2022/08/31 07:21:39;;;;;;;1.33;0.73;;;18.00;99.90;;;;;;4999237;28;20445;-80
2022/08/31 07:24:05;;;;;;;3.17;1.10;;;18.20;99.90;;;;;;5019913;28;20053;-81
2022/08/31 07:26:38;;;;;;;2.40;1.00;;;18.40;99.90;;;;;;5009782;28;20056;-83
2022/08/31 07:29:06;;;;;;;2.95;0.77;;;18.60;99.90;;;;;;5024351;28;20671;-81
2022/08/31 07:31:45;;;;;;;2.20;0.93;;;18.80;99.90;;;;;;5006585;28;20557;-78
2022/08/31 07:34:18;;;;;;;2.03;0.85;;;18.90;99.90;;;;;;5010012;28;20080;-80
2022/08/31 07:42:20;;;;;;;1.88;0.80;;;19.40;99.90;;;;;;5020206;28;20049;-81
2022/08/31 07:44:51;;;;;;;1.60;0.70;;;19.60;99.90;;;;;;5018941;28;20057;-81
2022/08/31 07:47:18;;;;;;;1.40;0.80;;;20.20;99.90;;;;;;4990705;28;20045;-82
2022/08/31 07:49:52;;;;;;;2.08;0.85;;;20.00;99.90;;;;;;4992530;28;20118;-82
2022/08/31 07:52:22;;;;;;;2.30;0.90;;;19.30;99.90;;;;;;5005159;28;20053;-81
2022/08/31 07:54:53;;;;;;;1.25;0.80;;;20.40;99.90;;;;;;5022273;28;20120;-82
2022/08/31 07:57:20;;;;;;;1.30;0.80;;;20.00;99.90;;;;;;5026068;28;20053;-82
2022/08/31 07:59:53;;;;;;;2.35;0.73;;;21.10;99.90;;;;;;4985596;28;20483;-81
2022/08/31 08:02:20;;;;;;;2.53;0.80;;;21.10;99.90;;;;;;5011589;28;20064;-84
2022/08/31 08:04:49;;;;;;;1.27;0.65;;;21.20;99.90;;;;;;5002561;28;20073;-80
2022/08/31 08:07:16;;;;;;;2.22;0.73;;;21.30;99.90;;;;;;5037454;28;20107;-79
2022/08/31 08:09:42;;;;;;;2.05;0.90;;;21.50;99.90;;;;;;5002997;28;20034;-80
2022/08/31 08:12:08;;;;;;;1.20;0.60;;;21.50;99.90;;;;;;5020526;28;20487;-79
2022/08/31 08:14:36;;;;;;;3.45;0.82;;;21.70;99.90;;;;;;5017824;28;20042;-81
2022/08/31 08:17:04;;;;;;;2.40;0.80;;;21.90;99.90;;;;;;5013792;28;20547;-81
2022/08/31 08:19:32;;;;;;;1.52;0.80;;;22.00;99.90;;;;;;5022062;28;20132;-79
2022/08/31 08:22:01;;;;;;;1.27;0.70;;;22.20;99.90;;;;;;5021282;28;20050;-81
2022/08/31 08:24:28;;;;;;;1.35;0.65;;;22.40;99.90;;;;;;5034198;28;20490;-80
2022/08/31 08:26:54;;;;;;;1.25;0.82;;;22.60;99.90;;;;;;4998223;28;20083;-80
2022/08/31 08:29:20;;;;;;;2.75;0.73;;;22.80;99.90;;;;;;5028468;28;20038;-81
2022/08/31 08:31:51;;;;;;;1.67;0.60;;;23.00;99.90;;;;;;4989042;28;20549;-81
2022/08/31 08:34:18;;;;;;;1.30;0.70;;;23.00;99.90;;;;;;5007536;28;20053;-80
2022/08/31 08:36:45;;;;;;;1.42;0.60;;;23.20;99.90;;;;;;5009739;28;20087;-79
2022/08/31 08:39:11;;;;;;;2.63;0.63;;;23.50;99.90;;;;;;5007987;28;20233;-81
2022/08/31 08:41:40;;;;;;;1.63;0.60;;;23.40;99.90;;;;;;4992098;28;20530;-81
2022/08/31 08:44:15;;;;;;;2.38;0.90;;;23.60;99.20;;;;;;4989982;28;20069;-80
2022/08/31 08:46:53;;;;;;;1.65;0.80;;;23.70;98.40;;;;;;5027513;28;20464;-81
2022/08/31 08:49:39;;;;;;;1.88;0.60;;;23.90;97.80;;;;;;5010498;28;20041;-80
2022/08/31 08:52:22;;;;;;;1.88;0.60;;;23.80;98.10;;;;;;5003317;28;20041;-76
2022/08/31 08:54:50;;;;;;;2.13;0.60;;;23.70;97.90;;;;;;5011245;28;20166;-81
2022/08/31 08:57:26;;;;;;;3.13;1.15;;;23.60;98.10;;;;;;5025001;28;20435;-80
2022/08/31 08:59:59;;;;;;;0.93;0.60;;;23.50;97.80;;;;;;5024537;28;20476;-81
2022/08/31 09:03:05;;;;;;;2.17;0.75;;;23.70;97.90;;;;;;5007523;28;20065;-81
2022/08/31 09:05:54;;;;;;;1.13;0.50;;;23.90;97.10;;;;;;5008929;28;20076;-81
2022/08/31 09:08:58;;;;;;;2.05;0.50;;;24.30;95.20;;;;;;5006190;28;20121;-80
2022/08/31 09:11:40;;;;;;;1.77;0.73;;;24.50;95.70;;;;;;5023356;28;20049;-80
2022/08/31 09:14:46;;;;;;;1.63;0.70;;;24.60;96.00;;;;;;5024837;28;20053;-79
2022/08/31 09:17:49;;;;;;;2.15;0.60;;;24.70;94.00;;;;;;5005811;28;20060;-82
2022/08/31 09:20:16;;;;;;;1.90;0.60;;;24.60;94.00;;;;;;5004369;28;20037;-81
2022/08/31 09:22:47;;;;;;;0.90;0.50;;;24.40;94.60;;;;;;5021727;28;20052;-83
2022/08/31 09:25:27;;;;;;;1.83;0.60;;;24.40;94.50;;;;;;5009603;28;20053;-83
2022/08/31 09:27:56;;;;;;;1.30;0.60;;;24.60;93.80;;;;;;5004949;28;20046;-81
2022/08/31 09:30:44;;;;;;;1.50;0.40;;;24.70;93.10;;;;;;5022713;28;20075;-80
2022/08/31 09:33:21;;;;;;;1.33;0.57;;;24.90;92.60;;;;;;5006152;28;20505;-81
2022/08/31 09:35:49;;;;;;;2.10;0.80;;;24.80;92.20;;;;;;5013262;28;20495;-85
2022/08/31 09:38:26;;;;;;;1.25;0.63;;;24.60;92.90;;;;;;5028650;28;20085;-79
2022/08/31 09:40:51;;;;;;;1.65;0.52;;;24.40;92.70;;;;;;5026997;28;20120;-81
2022/08/31 09:43:36;;;;;;;1.00;0.40;;;24.50;92.90;;;;;;5011255;28;20156;-81
2022/08/31 09:46:27;;;;;;;1.95;0.43;;;24.60;91.50;;;;;;5023324;28;20048;-80
2022/08/31 09:48:59;;;;;;;2.10;0.60;;;24.50;90.50;;;;;;5008851;28;20052;-80
2022/08/31 09:51:36;;;;;;;1.25;0.68;;;24.80;91.10;;;;;;5001817;28;20088;-80
2022/08/31 09:56:59;;;;;;;;;;;24.70;91.10;;;;;;5024058;28;20049;-82
2022/08/31 09:59:54;;;;;;;0.88;0.50;;;24.70;89.60;;;;;;5006790;28;20642;-82
2022/08/31 10:02:21;;;;;;;2.22;0.70;;;25.00;90.60;;;;;;4995723;28;20045;-82
2022/08/31 10:04:57;;;;;;;1.92;0.60;;;25.30;90.70;;;;;;5009983;28;20107;-82
2022/08/31 10:07:46;;;;;;;1.33;0.43;;;24.90;88.90;;;;;;5020924;28;20049;-81
2022/08/31 10:10:21;;;;;;;0.82;0.43;;;25.30;85.40;;;;;;5022802;28;20479;-82
2022/08/31 10:12:59;;;;;;;1.65;0.60;;;25.30;87.70;;;;;;5040759;28;20096;-78
2022/08/31 10:15:30;;;;;;;0.88;0.57;;;25.50;88.00;;;;;;5001680;28;20051;-79
2022/08/31 10:18:16;;;;;;;1.50;0.60;;;25.10;86.90;;;;;;5024078;28;20406;-82
2022/08/31 10:21:11;;;;;;;1.13;0.82;;;26.10;84.90;;;;;;5023686;28;20491;-82
2022/08/31 10:23:53;;;;;;;1.42;0.60;;;26.50;83.10;;;;;;5006961;28;20052;-82
2022/08/31 10:26:35;;;;;;;1.08;0.52;;;26.80;84.60;;;;;;5021639;28;20133;-80
2022/08/31 10:29:19;;;;;;;0.80;0.40;;;27.20;83.20;;;;;;5019442;28;20060;-81
2022/08/31 10:31:49;;;;;;;0.90;0.50;;;27.20;81.60;;;;;;5007307;28;20060;-82
2022/08/31 10:37:48;;;;;;;1.23;0.50;;;27.80;77.30;;;;;;5023901;28;20141;-80
2022/08/31 10:40:33;;;;;;;1.08;0.63;;;27.90;78.60;;;;;;5000399;28;20111;-81
2022/08/31 10:43:21;;;;;;;2.20;0.63;;;28.00;74.80;;;;;;5007234;28;20964;-80
2022/08/31 10:45:52;;;;;;;1.98;0.40;;;27.90;75.30;;;;;;5023793;28;20060;-81
2022/08/31 10:48:24;;;;;;;2.35;0.57;;;27.70;74.20;;;;;;5026091;28;20124;-82
2022/08/31 10:51:19;;;;;;;0.90;0.50;;;27.90;76.10;;;;;;5010514;28;20132;-82
2022/08/31 10:54:07;;;;;;;1.52;0.50;;;28.10;75.00;;;;;;5011630;28;20062;-82
2022/08/31 10:57:12;;;;;;;1.77;0.40;;;28.30;74.10;;;;;;5029808;28;20104;-77
2022/08/31 10:59:56;;;;;;;1.23;0.35;;;28.60;71.90;;;;;;4977194;28;20069;-81
2022/08/31 11:02:54;;;;;;;1.25;0.40;;;28.90;72.00;;;;;;5026461;28;20054;-80
2022/08/31 11:05:33;;;;;;;0.70;0.40;;;28.90;70.50;;;;;;5023797;28;20407;-79
2022/08/31 11:08:18;;;;;;;2.42;0.50;;;29.00;67.70;;;;;;5038558;28;20045;-81
2022/08/31 11:10:50;;;;;;;1.15;0.55;;;29.10;69.90;;;;;;5028341;28;20494;-81
2022/08/31 11:13:59;;;;;;;1.67;0.40;;;29.20;67.20;;;;;;5011230;28;20508;-83
2022/08/31 11:16:50;;;;;;;0.77;0.50;;;29.30;68.70;;;;;;5009166;28;20076;-81
2022/08/31 11:19:47;;;;;;;2.50;0.52;;;29.40;65.80;;;;;;5011757;28;20045;-82
2022/08/31 11:22:35;;;;;;;1.13;0.60;;;29.50;65.90;;;;;;5006209;28;20102;-81
2022/08/31 11:25:19;;;;;;;1.13;0.50;;;29.70;64.90;;;;;;5042625;28;20053;-81
2022/08/31 11:28:05;;;;;;;1.08;0.50;;;29.90;65.00;;;;;;5011115;28;20037;-82
2022/08/31 11:30:36;;;;;;;1.15;0.43;;;30.20;64.80;;;;;;5027465;28;20053;-82
2022/08/31 11:33:10;;;;;;;1.30;0.47;;;30.30;65.40;;;;;;5020867;28;20046;-78
2022/08/31 11:35:56;;;;;;;3.28;0.63;;;30.00;63.70;;;;;;5011695;28;20115;-81
2022/08/31 11:38:46;;;;;;;1.58;0.50;;;29.60;64.30;;;;;;5009543;28;20061;-78
2022/08/31 11:41:30;;;;;;;1.10;0.50;;;30.00;64.40;;;;;;5020177;28;20146;-82
2022/08/31 11:43:56;;;;;;;1.58;0.60;;;29.70;62.30;;;;;;5010151;28;20064;-83
2022/08/31 11:46:25;;;;;;;2.20;0.47;;;29.80;65.70;;;;;;5011102;28;20057;-82
2022/08/31 11:48:52;;;;;;;0.77;0.45;;;29.90;64.80;;;;;;5026093;28;20056;-77
2022/08/31 11:51:44;;;;;;;1.95;0.50;;;30.00;65.10;;;;;;5002135;28;20491;-82
2022/08/31 11:54:44;;;;;;;3.58;0.85;;;30.20;63.00;;;;;;5011786;28;20045;-81
2022/08/31 11:57:14;;;;;;;1.15;0.50;;;30.50;64.60;;;;;;5030353;28;20088;-82
2022/08/31 11:59:52;;;;;;;2.97;0.70;;;30.30;64.80;;;;;;5030953;28;20049;-83
2022/08/31 12:02:24;;;;;;;2.45;0.57;;;30.30;64.30;;;;;;5013654;28;20033;-82
2022/08/31 12:05:01;;;;;;;2.47;0.60;;;29.90;64.80;;;;;;5016194;28;20093;-83
2022/08/31 12:07:33;;;;;;;1.70;0.40;;;29.50;65.00;;;;;;5029181;28;20073;-83
2022/08/31 12:10:16;;;;;;;1.05;0.50;;;29.40;63.40;;;;;;5007973;28;20045;-83
2022/08/31 12:13:06;;;;;;;1.02;0.50;;;29.30;63.60;;;;;;5013506;28;20750;-82
2022/08/31 12:16:13;;;;;;;2.10;0.57;;;29.30;64.50;;;;;;5004504;28;20156;-83
2022/08/31 12:19:01;;;;;;;1.05;0.50;;;29.40;63.70;;;;;;5010801;28;20495;-84
2022/08/31 12:24:55;;;;;;;1.25;0.52;;;29.30;63.50;;;;;;5028380;28;20045;-83
2022/08/31 12:27:23;;;;;;;2.28;0.68;;;29.60;63.00;;;;;;5011134;28;20045;-83
2022/08/31 12:29:49;;;;;;;2.42;0.57;;;29.70;63.20;;;;;;5013628;28;20376;-83
2022/08/31 12:32:39;;;;;;;1.15;0.50;;;29.70;63.10;;;;;;4980943;28;20049;-80
2022/08/31 12:35:07;;;;;;;1.15;0.60;;;29.50;62.50;;;;;;5030817;28;20056;-82
2022/08/31 12:37:36;;;;;;;2.17;0.50;;;29.80;62.70;;;;;;5013300;28;20052;-81
2022/08/31 12:40:20;;;;;;;1.73;0.60;;;30.00;62.80;;;;;;5004309;28;20129;-80
2022/08/31 12:43:08;;;;;;;1.02;0.50;;;30.10;61.90;;;;;;5045086;28;20123;-82
2022/08/31 12:45:39;;;;;;;1.98;0.60;;;30.10;62.10;;;;;;5011784;28;20049;-83
2022/08/31 12:48:39;;;;;;;2.80;0.60;;;30.30;61.60;;;;;;5005868;28;20037;-82
2022/08/31 12:51:30;;;;;;;2.30;0.50;;;30.30;60.50;;;;;;5012915;28;20049;-81
2022/08/31 12:54:21;;;;;;;0.77;0.50;;;30.30;60.60;;;;;;5028361;28;20399;-81
2022/08/31 12:56:54;;;;;;;3.45;0.60;;;30.30;60.90;;;;;;5024304;28;20056;-82
2022/08/31 12:59:37;;;;;;;1.02;0.50;;;30.40;61.00;;;;;;5012482;28;20550;-81
2022/08/31 13:02:03;;;;;;;2.85;0.60;;;30.30;60.90;;;;;;5029238;28;20049;-78
2022/08/31 13:04:29;;;;;;;2.75;0.65;;;30.40;61.50;;;;;;5008453;28;20418;-80
2022/08/31 13:06:54;;;;;;;0.95;0.47;;;30.50;62.20;;;;;;5014704;28;20554;-81
2022/08/31 13:09:29;;;;;;;2.45;0.60;;;30.50;61.40;;;;;;5014763;28;20458;-80
2022/08/31 13:11:58;;;;;;;1.00;0.50;;;30.50;60.90;;;;;;5014861;28;20049;-79
2022/08/31 13:14:28;;;;;;;1.13;0.65;;;30.50;60.90;;;;;;5019082;28;20124;-81
2022/08/31 13:17:06;;;;;;;1.13;0.40;;;30.50;61.20;;;;;;5025183;28;20076;-80
2022/08/31 13:19:34;;;;;;;2.38;0.70;;;30.60;61.20;;;;;;5013965;28;20045;-77
2022/08/31 13:22:06;;;;;;;1.85;0.60;;;30.40;61.50;;;;;;4997102;28;20045;-80
2022/08/31 13:24:39;;;;;;;2.50;0.50;;;30.40;61.20;;;;;;5012518;28;20311;-83
2022/08/31 13:27:17;;;;;;;2.47;0.50;;;30.50;61.30;;;;;;5013721;28;20045;-81
2022/08/31 13:29:46;;;;;;;1.88;0.70;;;30.20;60.90;;;;;;5012835;28;20052;-82
2022/08/31 13:32:31;;;;;;;2.17;0.52;;;30.60;61.50;;;;;;5014308;28;20042;-84